This is the latest recevied weather packets stored in our database for station/object N9JXN-13. If no packets are shown the sender has not sent any weather packets the latest 10 day(s).
| Time | Temp. | Humidity | Pressure | Rain* | Wind** | Luminosity | Snow |
|---|---|---|---|---|---|---|---|
| 1777763659 | 13.33° C | 42% | 1016.9 hPa | 0 mm | - | 72 W/m² | - |
| 1777762461 | 13.89° C | 38% | 1017 hPa | 0 mm | - | 91 W/m² | - |
| 1777760960 | 14.44° C | 37% | 1016.9 hPa | 0 mm | - | 223 W/m² | - |
| 1777760661 | 13.89° C | 37% | 1017 hPa | 0 mm | - | 181 W/m² | - |
| 1777760059 | 13.33° C | 38% | 1017 hPa | 0 mm | - | 137 W/m² | - |
| 1777758260 | 14.44° C | 37% | 1017.1 hPa | 0 mm | - | 153 W/m² | - |
| 1777757959 | 14.44° C | 37% | 1017.1 hPa | 0 mm | - | 190 W/m² | - |
| 1777756459 | 14.44° C | 36% | 1017.3 hPa | 0 mm | - | 207 W/m² | - |
| 1777755260 | 14.44° C | 38% | 1017.5 hPa | 0 mm | - | 158 W/m² | - |
| 1777754060 | 13.89° C | 41% | 1017.7 hPa | 0 mm | - | 831 W/m² | - |
| 1777752559 | 12.78° C | 41% | 1018.1 hPa | 0 mm | - | 209 W/m² | - |
| 1777750459 | 12.78° C | 43% | 1018.5 hPa | 0 mm | - | 272 W/m² | - |
| 1777750160 | 12.78° C | 40% | 1018.5 hPa | 0 mm | - | 232 W/m² | - |
| 1777746859 | 12.22° C | 43% | 1019.1 hPa | 0 mm | - | 188 W/m² | - |
| 1777746560 | 12.78° C | 40% | 1019.1 hPa | 0 mm | - | 193 W/m² | - |
| 1777744159 | 12.22° C | 42% | 1019.3 hPa | 0 mm | - | 209 W/m² | - |
| 1777743860 | 11.67° C | 41% | 1019.4 hPa | 0 mm | - | 322 W/m² | - |
| 1777742960 | 13.33° C | 44% | 1019.5 hPa | 0 mm | - | 1153 W/m² | - |
| 1777742659 | 12.22° C | 40% | 1019.6 hPa | 0 mm | - | 1150 W/m² | - |
| 1777738760 | 11.67° C | 43% | 1020.1 hPa | 0 mm | - | 814 W/m² | - |
| 1777738459 | 11.67° C | 44% | 1020.2 hPa | 0 mm | - | 914 W/m² | - |
| 1777737860 | 11.67° C | 44% | 1020.2 hPa | 0 mm | - | 902 W/m² | - |
| 1777737259 | 11.11° C | 45% | 1020.3 hPa | 0 mm | - | 854 W/m² | - |
| 1777736960 | 11.11° C | 44% | 1020.4 hPa | 0 mm | - | 853 W/m² | - |
| 1777736060 | 11.11° C | 49% | 1020.4 hPa | 0 mm | - | 819 W/m² | - |
* Rain latest hour (hover to see other rain measurements)
** Current wind speed in m/s (hover to see current wind gust speed)